createdAt,value
2018-04-19T00:01:34.179Z,29.67
2018-04-19T00:04:01.827Z,37.73
2018-04-19T00:06:29.445Z,44.53
2018-04-19T00:08:57.099Z,27.37
2018-04-19T00:11:24.720Z,35.80
2018-04-19T00:13:52.375Z,37.77
2018-04-19T00:16:19.991Z,53.03
2018-04-19T00:18:47.623Z,29.70
2018-04-19T00:21:15.258Z,28.73
2018-04-19T00:23:43.536Z,29.77
2018-04-19T00:26:11.182Z,26.23
2018-04-19T00:28:38.802Z,31.47
2018-04-19T00:31:06.453Z,28.80
2018-04-19T00:33:34.076Z,31.47
2018-04-19T00:36:01.748Z,37.70
2018-04-19T00:38:29.376Z,48.23
2018-04-19T00:40:57.021Z,45.80
2018-04-19T00:43:24.635Z,35.03
2018-04-19T00:45:52.386Z,30.40
2018-04-19T00:48:20.056Z,30.97
2018-04-19T00:50:47.710Z,35.60
2018-04-19T00:53:15.327Z,37.03
2018-04-19T00:55:42.975Z,33.93
2018-04-19T00:58:10.701Z,27.33
2018-04-19T01:00:38.342Z,27.57
2018-04-19T01:03:06.027Z,37.70
2018-04-19T01:05:33.690Z,49.57
2018-04-19T01:08:01.326Z,27.70
2018-04-19T01:10:29.011Z,31.90
2018-04-19T01:12:56.636Z,31.83
2018-04-19T01:15:24.267Z,36.77
2018-04-19T01:17:51.901Z,36.03
2018-04-19T01:20:19.538Z,21.23
2018-04-19T01:22:47.224Z,33.33
2018-04-19T01:25:14.877Z,41.23
2018-04-19T01:27:42.483Z,36.63
2018-04-19T01:30:10.220Z,35.47
2018-04-19T01:32:37.864Z,29.47
2018-04-19T01:35:05.479Z,33.67
2018-04-19T01:37:33.200Z,40.60
2018-04-19T01:40:00.859Z,35.50
2018-04-19T01:42:28.524Z,29.67
2018-04-19T01:44:55.510Z,33.63
2018-04-19T01:47:23.230Z,34.17
2018-04-19T01:49:50.834Z,36.67
2018-04-19T01:52:18.564Z,44.33
2018-04-19T01:54:46.182Z,34.97
2018-04-19T01:57:13.822Z,39.70
2018-04-19T01:59:41.436Z,48.07
2018-04-19T02:02:09.069Z,30.97
2018-04-19T02:04:36.779Z,33.87
2018-04-19T02:07:04.432Z,27.67
2018-04-19T02:09:32.099Z,35.23
2018-04-19T02:11:59.764Z,35.90
2018-04-19T02:14:27.391Z,36.17
2018-04-19T02:16:55.034Z,42.10
2018-04-19T02:19:22.647Z,30.60
2018-04-19T02:21:50.286Z,35.20
2018-04-19T02:24:17.905Z,33.77
2018-04-19T02:26:45.542Z,31.10
2018-04-19T02:29:13.158Z,32.53
2018-04-19T02:31:40.787Z,23.87
2018-04-19T02:34:08.418Z,25.03
2018-04-19T02:36:36.037Z,29.00
2018-04-19T02:39:03.666Z,21.80
2018-04-19T02:41:31.281Z,29.10
2018-04-19T02:43:58.968Z,23.27
2018-04-19T02:46:26.582Z,31.00
2018-04-19T02:48:54.279Z,29.90
2018-04-19T02:51:21.899Z,35.97
2018-04-19T02:53:49.534Z,23.53
2018-04-19T02:56:17.148Z,28.97
2018-04-19T02:58:44.786Z,22.27
2018-04-19T03:01:12.423Z,39.77
2018-04-19T03:03:40.054Z,36.30
2018-04-19T03:06:07.675Z,35.10
2018-04-19T03:08:35.311Z,26.30
2018-04-19T03:11:02.948Z,39.87
2018-04-19T03:13:30.582Z,34.43
2018-04-19T03:15:58.200Z,23.23
2018-04-19T03:18:25.839Z,33.87
2018-04-19T03:20:53.450Z,28.80
2018-04-19T03:23:21.146Z,25.00
2018-04-19T03:25:48.758Z,29.83
2018-04-19T03:28:16.399Z,25.67
2018-04-19T03:30:44.044Z,21.10
2018-04-19T03:33:11.687Z,28.93
2018-04-19T03:35:39.302Z,22.33
2018-04-19T03:38:07.027Z,31.03
2018-04-19T03:40:34.643Z,31.70
2018-04-19T03:43:02.264Z,29.33
2018-04-19T03:45:30.110Z,26.83
2018-04-19T03:47:57.727Z,29.67
2018-04-19T03:50:25.362Z,27.20
2018-04-19T03:52:52.975Z,28.60
2018-04-19T03:55:20.663Z,36.00
2018-04-19T03:57:48.328Z,24.03
2018-04-19T04:00:15.986Z,28.87
2018-04-19T04:02:43.616Z,20.37
2018-04-19T04:05:11.251Z,21.97
2018-04-19T04:07:38.864Z,35.30
2018-04-19T04:10:06.507Z,20.53
2018-04-19T04:12:34.203Z,22.03
2018-04-19T04:15:01.902Z,36.17
2018-04-19T04:17:41.498Z,25.07
2018-04-19T04:20:20.937Z,33.97
2018-04-19T04:23:02.028Z,28.37
2018-04-19T04:25:29.671Z,36.53
2018-04-19T04:27:57.279Z,45.63
2018-04-19T04:30:24.912Z,27.57
2018-04-19T04:32:52.571Z,23.50
2018-04-19T04:35:20.301Z,22.40
2018-04-19T04:37:47.889Z,25.17
2018-04-19T04:40:15.559Z,32.60
2018-04-19T04:42:43.179Z,29.83
2018-04-19T04:45:10.825Z,27.23
2018-04-19T04:47:38.438Z,36.70
2018-04-19T04:50:06.078Z,30.07
2018-04-19T04:52:33.762Z,31.87
2018-04-19T04:55:01.370Z,27.33
2018-04-19T04:57:29.015Z,28.93
2018-04-19T04:59:56.654Z,30.70
2018-04-19T05:02:24.286Z,29.77
2018-04-19T05:04:51.978Z,20.93
2018-04-19T05:07:19.617Z,42.23
2018-04-19T05:09:47.307Z,34.83
2018-04-19T05:12:14.946Z,26.37
2018-04-19T05:14:42.562Z,25.80
2018-04-19T05:17:10.295Z,36.33
2018-04-19T05:19:37.954Z,40.40
2018-04-19T05:22:05.619Z,27.40
2018-04-19T05:24:33.275Z,42.07
2018-04-19T05:27:00.906Z,26.03
2018-04-19T05:29:28.607Z,27.33
2018-04-19T05:31:56.266Z,24.47
2018-04-19T05:34:23.934Z,40.80
2018-04-19T05:36:51.599Z,45.33
2018-04-19T05:39:19.211Z,34.33
2018-04-19T05:41:46.842Z,54.53
2018-04-19T05:44:14.450Z,32.00
2018-04-19T05:46:42.133Z,58.73
2018-04-19T05:49:09.742Z,32.43
2018-04-19T05:51:37.458Z,40.43
2018-04-19T05:54:05.326Z,25.97
2018-04-19T05:56:32.967Z,35.80
2018-04-19T05:59:00.591Z,42.37
2018-04-19T06:01:28.222Z,36.20
2018-04-19T06:03:55.847Z,58.50
2018-04-19T06:06:23.462Z,54.83
2018-04-19T06:08:51.099Z,27.80
2018-04-19T06:11:18.719Z,48.17
2018-04-19T06:13:46.431Z,59.37
2018-04-19T06:16:14.052Z,32.87
2018-04-19T06:18:41.761Z,35.17
2018-04-19T06:21:09.384Z,35.40
2018-04-19T06:23:37.014Z,42.00
2018-04-19T06:26:04.632Z,40.03
2018-04-19T06:28:32.307Z,39.87
2018-04-19T06:30:59.926Z,41.97
2018-04-19T06:33:27.569Z,35.43
2018-04-19T06:35:55.305Z,48.70
2018-04-19T06:38:22.939Z,30.77
2018-04-19T06:40:50.554Z,37.23
2018-04-19T06:43:18.259Z,39.60
2018-04-19T06:45:45.943Z,45.60
2018-04-19T06:48:13.574Z,42.60
2018-04-19T06:50:42.027Z,35.03
2018-04-19T06:53:09.742Z,35.83
2018-04-19T06:55:37.415Z,45.40
2018-04-19T06:58:05.070Z,44.27
2018-04-19T07:00:32.830Z,41.50
2018-04-19T07:03:00.596Z,67.80
2018-04-19T07:05:28.262Z,50.50
2018-04-19T07:07:55.899Z,44.20
2018-04-19T07:10:23.756Z,45.90
2018-04-19T07:12:51.410Z,51.03
2018-04-19T07:15:19.217Z,43.57
2018-04-19T07:17:46.827Z,45.40
2018-04-19T07:20:14.547Z,43.83
2018-04-19T07:22:42.164Z,35.03
2018-04-19T07:25:09.807Z,35.40
2018-04-19T07:27:37.415Z,48.20
2018-04-19T07:30:05.094Z,33.53
2018-04-19T07:32:32.715Z,45.97
2018-04-19T07:35:00.355Z,39.57
2018-04-19T07:37:28.078Z,36.37
2018-04-19T07:39:55.715Z,41.50
2018-04-19T07:42:23.405Z,29.80
2018-04-19T07:44:51.042Z,30.67
2018-04-19T07:47:18.664Z,44.57
2018-04-19T07:49:46.398Z,37.93
2018-04-19T07:52:14.010Z,33.53
2018-04-19T07:54:41.722Z,29.30
2018-04-19T07:57:09.386Z,25.57
2018-04-19T07:59:37.041Z,24.40
2018-04-19T08:02:04.806Z,27.40
2018-04-19T08:04:32.473Z,29.93
2018-04-19T08:07:00.096Z,23.10
2018-04-19T08:09:27.731Z,20.10
2018-04-19T08:11:55.360Z,15.23
2018-04-19T08:14:23.016Z,24.43
2018-04-19T08:16:50.636Z,22.43
2018-04-19T08:19:18.272Z,18.67
2018-04-19T08:21:45.883Z,28.73
2018-04-19T08:24:13.565Z,14.80
2018-04-19T08:26:41.228Z,48.03
2018-04-19T08:29:08.895Z,14.03
2018-04-19T08:31:36.499Z,19.40
2018-04-19T08:34:04.297Z,19.23
2018-04-19T08:36:31.984Z,19.03
2018-04-19T08:38:59.642Z,30.63
2018-04-19T08:41:27.408Z,18.80
2018-04-19T08:43:55.015Z,20.37
2018-04-19T08:46:22.650Z,16.47
2018-04-19T08:48:50.271Z,42.87
2018-04-19T08:51:17.956Z,25.80
2018-04-19T08:53:45.557Z,21.10
2018-04-19T08:56:13.186Z,18.27
2018-04-19T08:58:40.798Z,44.63
2018-04-19T09:01:08.512Z,29.10
2018-04-19T09:03:36.171Z,22.30
2018-04-19T09:06:03.830Z,25.37
2018-04-19T09:08:31.492Z,26.27
2018-04-19T09:10:59.130Z,16.20
2018-04-19T09:13:26.821Z,19.73
2018-04-19T09:15:54.473Z,15.40
2018-04-19T09:18:22.078Z,26.73
2018-04-19T09:20:49.719Z,20.60
2018-04-19T09:23:17.381Z,18.37
2018-04-19T09:25:45.133Z,21.17
2018-04-19T09:28:12.748Z,18.43
2018-04-19T09:30:40.529Z,16.37
2018-04-19T09:33:08.222Z,17.23
2018-04-19T09:35:35.860Z,20.10
2018-04-19T09:38:03.471Z,10.63
2018-04-19T09:40:31.108Z,19.20
2018-04-19T09:42:58.770Z,25.90
2018-04-19T09:45:26.441Z,15.67
2018-04-19T09:47:54.086Z,19.40
2018-04-19T09:50:21.716Z,12.17
2018-04-19T09:52:49.351Z,18.10
2018-04-19T09:55:16.982Z,17.97
2018-04-19T09:57:56.420Z,20.17
2018-04-19T10:00:24.031Z,19.47
2018-04-19T10:02:51.662Z,14.37
2018-04-19T10:05:19.275Z,17.53
2018-04-19T10:07:46.965Z,24.00
2018-04-19T10:10:14.576Z,22.50
2018-04-19T10:12:42.353Z,16.07
2018-04-19T10:15:09.966Z,25.90
2018-04-19T10:17:37.631Z,14.20
2018-04-19T10:20:05.282Z,23.47
2018-04-19T10:22:32.915Z,23.20
2018-04-19T10:25:00.610Z,22.13
2018-04-19T10:27:28.324Z,18.57
2018-04-19T10:29:55.937Z,12.17
2018-04-19T10:32:23.571Z,18.33
2018-04-19T10:34:51.184Z,13.00
2018-04-19T10:37:18.919Z,27.63
2018-04-19T10:39:46.939Z,18.47
2018-04-19T10:42:14.571Z,15.50
2018-04-19T10:44:42.187Z,12.30
2018-04-19T10:47:09.823Z,23.00
2018-04-19T10:49:37.445Z,14.27
2018-04-19T10:52:05.083Z,20.77
2018-04-19T10:54:32.763Z,25.77
2018-04-19T10:57:00.933Z,12.10
2018-04-19T10:59:28.597Z,17.13
2018-04-19T11:01:56.232Z,19.20
2018-04-19T11:04:23.925Z,11.47
2018-04-19T11:06:51.587Z,7.33
2018-04-19T11:09:19.239Z,18.00
2018-04-19T11:11:46.883Z,11.90
2018-04-19T11:14:14.578Z,10.87
2018-04-19T11:16:42.239Z,9.03
2018-04-19T11:19:09.896Z,12.30
2018-04-19T11:21:37.661Z,19.60
2018-04-19T11:24:05.323Z,10.70
2018-04-19T11:26:33.089Z,14.67
2018-04-19T11:29:00.853Z,15.47
2018-04-19T11:31:28.515Z,12.37
2018-04-19T11:33:56.122Z,10.73
2018-04-19T11:36:23.840Z,17.30
2018-04-19T11:38:51.511Z,11.23
2018-04-19T11:41:19.124Z,9.30
2018-04-19T11:43:46.763Z,18.30
2018-04-19T11:46:14.490Z,18.10
2018-04-19T11:48:42.258Z,12.93
2018-04-19T11:51:10.020Z,8.73
2018-04-19T11:53:37.703Z,17.77
2018-04-19T11:56:05.353Z,8.63
2018-04-19T11:58:33.111Z,15.00
2018-04-19T12:01:00.833Z,9.77
2018-04-19T12:03:28.606Z,11.90
2018-04-19T12:05:56.297Z,11.77
2018-04-19T12:08:23.935Z,15.13
2018-04-19T12:10:51.631Z,12.50
2018-04-19T12:13:19.396Z,18.30
2018-04-19T12:15:47.007Z,14.83
2018-04-19T12:18:14.646Z,18.90
2018-04-19T12:20:42.260Z,11.10
2018-04-19T12:23:09.903Z,25.73
2018-04-19T12:25:37.512Z,9.93
2018-04-19T12:28:05.166Z,9.90
2018-04-19T12:30:32.835Z,24.80
2018-04-19T12:33:00.471Z,11.40
2018-04-19T12:35:28.087Z,9.93
2018-04-19T12:37:55.722Z,5.47
2018-04-19T12:40:23.391Z,14.77
2018-04-19T12:42:51.022Z,15.67
2018-04-19T12:45:18.639Z,10.07
2018-04-19T12:47:46.276Z,14.27
2018-04-19T12:50:13.924Z,23.47
2018-04-19T12:52:41.594Z,10.30
2018-04-19T12:55:09.199Z,16.80
2018-04-19T12:57:36.827Z,11.20
2018-04-19T13:00:04.434Z,20.00
2018-04-19T13:02:32.066Z,9.53
2018-04-19T13:04:59.671Z,10.67
2018-04-19T13:07:27.459Z,11.37
2018-04-19T13:09:55.131Z,12.73
2018-04-19T13:12:22.758Z,5.57
2018-04-19T13:14:50.371Z,9.07
2018-04-19T13:17:18.011Z,5.23
2018-04-19T13:19:45.638Z,7.30
2018-04-19T13:22:13.332Z,8.77
2018-04-19T13:24:41.003Z,10.40
2018-04-19T13:27:08.614Z,8.50
2018-04-19T13:29:36.238Z,9.40
2018-04-19T13:32:03.855Z,18.00
2018-04-19T13:34:31.490Z,7.33
2018-04-19T13:36:59.096Z,5.60
2018-04-19T13:39:26.736Z,9.73
2018-04-19T13:41:54.435Z,12.63
2018-04-19T13:44:22.070Z,12.83
2018-04-19T13:46:49.687Z,7.13
2018-04-19T13:49:17.314Z,7.30
2018-04-19T13:51:44.976Z,15.00
2018-04-19T13:54:12.611Z,14.27
2018-04-19T13:56:40.218Z,11.73
2018-04-19T13:59:07.862Z,11.03
2018-04-19T14:01:35.466Z,11.17
2018-04-19T14:04:03.090Z,6.93
2018-04-19T14:06:30.755Z,10.27
2018-04-19T14:08:58.391Z,11.63
2018-04-19T14:11:26.040Z,9.40
2018-04-19T14:13:53.676Z,11.77
2018-04-19T14:16:21.294Z,6.60
2018-04-19T14:18:48.925Z,11.23
2018-04-19T14:21:16.727Z,15.73
2018-04-19T14:23:44.382Z,12.93
2018-04-19T14:26:11.998Z,11.27
2018-04-19T14:28:39.811Z,11.07
2018-04-19T14:31:07.484Z,6.47
2018-04-19T14:33:35.139Z,9.00
2018-04-19T14:36:02.757Z,5.10
2018-04-19T14:38:30.391Z,8.27
2018-04-19T14:40:58.023Z,7.50
2018-04-19T14:43:25.787Z,11.00
2018-04-19T14:45:53.454Z,8.57
2018-04-19T14:48:21.091Z,14.57
2018-04-19T14:50:48.782Z,6.70
2018-04-19T14:53:16.441Z,10.87
2018-04-19T14:55:44.106Z,6.10
2018-04-19T14:58:11.772Z,9.50
2018-04-19T15:00:39.580Z,13.90
2018-04-19T15:03:07.530Z,8.43
2018-04-19T15:05:35.226Z,9.73
2018-04-19T15:08:02.877Z,7.40
2018-04-19T15:10:30.590Z,11.07
2018-04-19T15:12:58.241Z,13.40
2018-04-19T15:15:26.008Z,9.60
2018-04-19T15:17:53.678Z,10.90
2018-04-19T15:20:21.310Z,14.60
2018-04-19T15:22:49.104Z,10.37
2018-04-19T15:25:16.770Z,15.60
2018-04-19T15:27:45.363Z,24.20
2018-04-19T15:30:12.990Z,13.40
2018-04-19T15:32:40.607Z,9.43
2018-04-19T15:35:08.347Z,13.23
2018-04-19T15:37:36.552Z,14.73
2018-04-19T15:40:04.192Z,16.70
2018-04-19T15:42:31.803Z,18.40
2018-04-19T15:44:59.440Z,17.77
2018-04-19T15:47:27.183Z,16.13
2018-04-19T15:49:54.947Z,15.70
2018-04-19T15:52:22.587Z,15.10
2018-04-19T15:54:50.223Z,17.17
2018-04-19T15:57:17.835Z,21.60
2018-04-19T15:59:45.583Z,12.00
2018-04-19T16:02:13.282Z,17.73
2018-04-19T16:04:40.904Z,17.00
2018-04-19T16:07:08.566Z,11.50
2018-04-19T16:09:36.202Z,14.03
2018-04-19T16:12:03.834Z,13.13
2018-04-19T16:14:31.480Z,15.90
2018-04-19T16:16:59.123Z,15.67
2018-04-19T16:19:26.783Z,11.93
2018-04-19T16:21:54.399Z,21.43
2018-04-19T16:24:22.107Z,10.20
2018-04-19T16:26:49.868Z,13.77
2018-04-19T16:29:17.526Z,9.13
2018-04-19T16:31:45.136Z,9.80
2018-04-19T16:34:12.780Z,11.90
2018-04-19T16:36:40.391Z,13.10
2018-04-19T16:39:08.035Z,10.17
2018-04-19T16:41:35.642Z,13.50
2018-04-19T16:44:03.261Z,16.13
2018-04-19T16:46:30.892Z,9.53
2018-04-19T16:48:58.632Z,19.20
2018-04-19T16:51:26.270Z,31.50
2018-04-19T16:53:53.899Z,20.40
2018-04-19T16:56:21.538Z,32.90
2018-04-19T16:58:49.175Z,32.40
2018-04-19T17:01:16.856Z,22.00
2018-04-19T17:03:44.510Z,26.93
2018-04-19T17:06:12.158Z,24.93
2018-04-19T17:08:39.791Z,27.10
2018-04-19T17:11:07.490Z,38.50
2018-04-19T17:13:35.100Z,28.83
2018-04-19T17:16:02.810Z,24.27
2018-04-19T17:18:30.481Z,22.40
2018-04-19T17:20:58.132Z,23.47
2018-04-19T17:23:25.738Z,38.13
2018-04-19T17:25:53.382Z,24.67
2018-04-19T17:28:21.004Z,30.10
2018-04-19T17:30:48.682Z,21.80
2018-04-19T17:33:16.353Z,30.17
2018-04-19T17:35:44.113Z,30.47
2018-04-19T17:38:11.740Z,25.93
2018-04-19T17:40:39.828Z,24.50
2018-04-19T17:43:07.443Z,27.97
2018-04-19T17:45:35.074Z,21.70
2018-04-19T17:48:02.750Z,24.33
2018-04-19T17:50:30.398Z,20.57
2018-04-19T17:52:58.086Z,27.35
2018-04-19T17:55:25.731Z,32.00
2018-04-19T17:57:53.384Z,29.90
2018-04-19T18:00:21.043Z,32.37
2018-04-19T18:02:48.711Z,34.37
2018-04-19T18:05:16.352Z,22.70
2018-04-19T18:07:43.975Z,21.50
2018-04-19T18:10:11.619Z,25.50
2018-04-19T18:12:39.247Z,21.80
2018-04-19T18:15:06.886Z,16.17
2018-04-19T18:17:34.579Z,17.50
2018-04-19T18:20:02.232Z,14.83
2018-04-19T18:22:29.842Z,23.77
2018-04-19T18:24:57.459Z,9.33
2018-04-19T18:27:25.086Z,21.10
2018-04-19T18:29:52.698Z,14.03
2018-04-19T18:32:20.329Z,19.40
2018-04-19T18:34:48.012Z,11.70
2018-04-19T18:37:15.650Z,16.53
2018-04-19T18:39:43.340Z,11.77
2018-04-19T18:42:11.011Z,9.30
2018-04-19T18:44:38.628Z,13.37
2018-04-19T18:47:06.322Z,21.53
2018-04-19T18:49:33.938Z,16.43
2018-04-19T18:52:01.584Z,15.50
2018-04-19T18:54:29.210Z,6.70
2018-04-19T18:56:56.846Z,15.17
2018-04-19T18:59:24.532Z,11.33
2018-04-19T19:01:52.164Z,7.40
2018-04-19T19:04:19.859Z,14.83
2018-04-19T19:06:47.492Z,20.90
2018-04-19T19:09:15.221Z,10.23
2018-04-19T19:11:42.841Z,13.83
2018-04-19T19:14:10.450Z,11.77
2018-04-19T19:16:38.189Z,20.07
2018-04-19T19:19:17.820Z,9.60
2018-04-19T19:21:45.486Z,23.30
2018-04-19T19:24:13.134Z,9.70
2018-04-19T19:26:40.798Z,18.47
2018-04-19T19:29:08.434Z,19.93
2018-04-19T19:31:36.130Z,10.10
2018-04-19T19:34:03.790Z,13.30
2018-04-19T19:36:31.454Z,11.93
2018-04-19T19:38:59.083Z,13.50
2018-04-19T19:41:26.699Z,10.70
2018-04-19T19:43:54.439Z,13.53
2018-04-19T19:46:22.098Z,12.70
2018-04-19T19:48:49.743Z,12.23
2018-04-19T19:51:18.174Z,16.73
2018-04-19T19:53:45.806Z,11.73
2018-04-19T19:56:13.426Z,15.90
2018-04-19T19:58:41.135Z,15.67
2018-04-19T20:01:08.754Z,16.40
2018-04-19T20:03:36.454Z,12.30
2018-04-19T20:06:04.080Z,12.77
2018-04-19T20:08:31.734Z,18.97
2018-04-19T20:10:59.438Z,17.60
2018-04-19T20:13:27.098Z,14.23
2018-04-19T20:15:54.721Z,19.83
2018-04-19T20:18:22.430Z,13.97
2018-04-19T20:20:50.105Z,30.37
2018-04-19T20:23:17.759Z,17.50
2018-04-19T20:25:45.394Z,14.90
2018-04-19T20:28:13.084Z,15.00
2018-04-19T20:30:40.714Z,13.93
2018-04-19T20:33:08.327Z,15.03
2018-04-19T20:35:36.437Z,18.03
2018-04-19T20:38:04.050Z,11.83
2018-04-19T20:40:31.704Z,11.40
2018-04-19T20:42:59.372Z,18.33
2018-04-19T20:45:27.006Z,25.47
2018-04-19T20:47:54.685Z,20.17
2018-04-19T20:50:22.337Z,19.47
2018-04-19T20:52:49.955Z,21.03
2018-04-19T20:55:17.591Z,13.43
2018-04-19T20:57:45.207Z,17.47
2018-04-19T21:00:12.898Z,20.30
2018-04-19T21:02:40.561Z,14.00
2018-04-19T21:05:08.202Z,17.73
2018-04-19T21:07:35.928Z,17.00
2018-04-19T21:10:03.551Z,11.67
2018-04-19T21:12:31.176Z,21.17
2018-04-19T21:14:58.805Z,11.23
2018-04-19T21:17:26.414Z,18.40
2018-04-19T21:19:54.046Z,19.33
2018-04-19T21:22:21.754Z,19.83
2018-04-19T21:24:49.387Z,13.73
2018-04-19T21:27:17.078Z,20.13
2018-04-19T21:29:44.846Z,12.87
2018-04-19T21:32:12.607Z,16.87
2018-04-19T21:34:40.255Z,14.70
2018-04-19T21:37:07.894Z,19.07
2018-04-19T21:39:35.520Z,32.30
2018-04-19T21:42:03.208Z,13.50
2018-04-19T21:44:30.810Z,16.67
2018-04-19T21:46:58.451Z,19.53
2018-04-19T21:49:26.066Z,16.30
2018-04-19T21:51:53.802Z,20.80
2018-04-19T21:54:21.418Z,16.73
2018-04-19T21:56:49.059Z,15.40
2018-04-19T21:59:16.670Z,16.80
2018-04-19T22:01:44.392Z,17.70
2018-04-19T22:04:11.999Z,27.70
2018-04-19T22:06:39.644Z,25.43
2018-04-19T22:09:07.259Z,24.27
2018-04-19T22:11:35.008Z,16.33
2018-04-19T22:14:02.665Z,26.03
2018-04-19T22:16:30.330Z,15.73
2018-04-19T22:18:57.938Z,16.73
2018-04-19T22:21:25.588Z,23.00
2018-04-19T22:23:53.328Z,22.73
2018-04-19T22:26:20.974Z,20.57
2018-04-19T22:28:48.647Z,17.30
2018-04-19T22:31:16.292Z,16.13
2018-04-19T22:33:43.909Z,20.10
2018-04-19T22:36:11.553Z,20.73
2018-04-19T22:38:39.171Z,17.83
2018-04-19T22:41:06.822Z,22.40
2018-04-19T22:43:34.426Z,20.30
2018-04-19T22:46:02.074Z,21.80
2018-04-19T22:48:29.734Z,14.30
2018-04-19T22:50:57.344Z,20.00
2018-04-19T22:53:24.988Z,23.20
2018-04-19T22:55:52.612Z,20.93
2018-04-19T22:58:20.247Z,20.53
2018-04-19T23:00:47.959Z,19.93
2018-04-19T23:03:15.594Z,22.27
2018-04-19T23:05:43.211Z,32.93
2018-04-19T23:08:10.851Z,20.83
2018-04-19T23:10:38.458Z,19.40
2018-04-19T23:13:06.103Z,21.97
2018-04-19T23:15:33.823Z,23.97
2018-04-19T23:18:01.492Z,22.33
2018-04-19T23:20:29.141Z,25.73
2018-04-19T23:22:56.774Z,29.70
2018-04-19T23:25:24.386Z,26.03
2018-04-19T23:27:52.028Z,21.90
2018-04-19T23:30:19.704Z,23.90
2018-04-19T23:32:47.352Z,22.50
2018-04-19T23:35:14.967Z,20.20
2018-04-19T23:37:42.695Z,26.20
2018-04-19T23:40:10.341Z,21.00
2018-04-19T23:42:37.974Z,16.53
2018-04-19T23:45:05.668Z,21.50
2018-04-19T23:47:33.334Z,21.07
2018-04-19T23:50:00.952Z,17.63
2018-04-19T23:52:28.658Z,27.03
2018-04-19T23:54:56.314Z,29.70
2018-04-19T23:57:23.969Z,25.60
2018-04-19T23:59:51.651Z,29.93
